Beach, ND

3:08 AM MDT on May 26, 2018 (GMT -0600)
Beach

Weather History for K20U - November, 2012

Change the Weather History Date:

Thursday, November 29, 2012

  Actual Average (KGDV) Record (KGDV)
Temperature  
Mean Temperature 22 °F -  
Max Temperature 28 °F 34 °F 48 °F (1997)
Min Temperature 17 °F 16 °F -5 °F (2006)
Degree Days  
Heating Degree Days 42    
Moisture  
Dew Point 20 °F    
Average Humidity 92    
Maximum Humidity 100    
Minimum Humidity 80    
Precipitation  
Precipitation 0.00 in - - ()
Sea Level Pressure  
Sea Level Pressure 29.90 in    
Wind  
Wind Speed 11 mph (SE)    
Max Wind Speed 21 mph    
Max Gust Speed 24 mph    
Visibility 8 miles    
Events      
Averages and records for this station are not official NWS values.
T = Trace of Precipitation, MM = Missing Value Source: NWS Daily Summary

Daily Weather History Graph

Daily Weather History Graph

Search for Another Location

Airport or City:

Astronomy

Nov. 29, 2012 Rise Set
Actual Time 7:18 AM MST 4:09 PM MST
Civil Twilight 6:44 AM MST 4:44 PM MST
Nautical Twilight 6:06 AM MST 5:22 PM MST
Astronomical Twilight 5:29 AM MST 5:58 PM MST
Moon 5:14 PM MST (11/29) 8:07 AM MST (11/29)
Length of Visible Light 9h 59m
Length of Day
8h 50m
Full, 99% of the Moon is Illuminated
Nov 29
Full
Dec 6
Last Quarter
Dec 13
New
Dec 19
First Quarter
Dec 28
Full

Hourly Weather History & Observations

Time (MST) Temp. Windchill Dew Point Humidity Pressure Visibility Wind Dir Wind Speed Gust Speed Precip Events Conditions
12:15 AM 19.4 °F 10.4 °F 19.4 °F 100% 29.94 in 10.0 mi SE 6.9 mph - N/A   Clear
12:35 AM 19.4 °F 8.6 °F 17.6 °F 93% 29.93 in 10.0 mi SE 9.2 mph - N/A   Clear
12:55 AM 19.4 °F 8.6 °F 17.6 °F 93% 29.92 in 10.0 mi SE 9.2 mph - N/A   Clear
1:15 AM 19.4 °F 7.9 °F 17.6 °F 93% 29.92 in 10.0 mi SE 10.4 mph - N/A   Clear
1:35 AM 21.2 °F 10.1 °F 19.4 °F 93% 29.91 in 10.0 mi SE 10.4 mph - N/A   Clear
1:55 AM 21.2 °F 8.9 °F 19.4 °F 93% 29.90 in 10.0 mi SE 12.7 mph 18.4 mph N/A   Clear
2:15 AM 21.2 °F 8.9 °F 19.4 °F 93% 29.90 in 10.0 mi SE 12.7 mph - N/A   Clear
2:35 AM 21.2 °F 8.3 °F 19.4 °F 93% 29.89 in 10.0 mi SE 13.8 mph - N/A   Clear
2:55 AM 23.0 °F 10.1 °F 19.4 °F 86% 29.89 in 10.0 mi SE 15.0 mph 20.7 mph N/A   Clear
3:15 AM 23.0 °F 10.6 °F 19.4 °F 86% 29.89 in 10.0 mi SE 13.8 mph - N/A   Clear
3:35 AM 23.0 °F 10.1 °F 21.2 °F 93% 29.88 in 10.0 mi SE 15.0 mph - N/A   Clear
3:55 AM 23.0 °F 10.1 °F 19.4 °F 86% 29.88 in 10.0 mi SE 15.0 mph 20.7 mph N/A   Clear
4:15 AM 23.0 °F 11.1 °F 21.2 °F 93% 29.88 in 9.0 mi SE 12.7 mph - N/A   Clear
4:35 AM 21.2 °F 9.5 °F 19.4 °F 93% 29.89 in 8.0 mi ESE 11.5 mph - N/A   Clear
4:55 AM 21.2 °F 10.9 °F 19.4 °F 93% 29.89 in 8.0 mi ESE 9.2 mph - N/A   Clear
5:15 AM 21.2 °F 6.4 °F 19.4 °F 93% 29.87 in 8.0 mi SE 18.4 mph 23.0 mph N/A   Clear
5:35 AM 21.2 °F 8.3 °F 19.4 °F 93% 29.87 in 8.0 mi SE 13.8 mph 23.0 mph N/A   Scattered Clouds
5:55 AM 21.2 °F 5.6 °F 19.4 °F 93% 29.87 in 8.0 mi SE 20.7 mph - N/A   Mostly Cloudy
6:15 AM 21.2 °F 8.9 °F 19.4 °F 93% 29.87 in 8.0 mi SE 12.7 mph 21.9 mph N/A   Scattered Clouds
6:35 AM 21.2 °F 7.3 °F 19.4 °F 93% 29.87 in 8.0 mi SE 16.1 mph - N/A   Partly Cloudy
6:55 AM 21.2 °F 7.8 °F 19.4 °F 93% 29.87 in 8.0 mi SE 15.0 mph 21.9 mph N/A   Partly Cloudy
7:15 AM 21.2 °F 8.3 °F 19.4 °F 93% 29.87 in 8.0 mi SE 13.8 mph 21.9 mph N/A   Scattered Clouds
7:35 AM 21.2 °F 6.8 °F 19.4 °F 93% 29.88 in 6.0 mi SE 17.3 mph 23.0 mph N/A   Overcast
7:55 AM 21.2 °F 7.8 °F 19.4 °F 93% 29.88 in 5.0 mi SE 15.0 mph 23.0 mph N/A   Overcast
8:15 AM 21.2 °F 8.3 °F 19.4 °F 93% 29.88 in 5.0 mi SE 13.8 mph 20.7 mph N/A   Overcast
8:35 AM 23.0 °F 11.1 °F 19.4 °F 86% 29.90 in 5.0 mi SE 12.7 mph - N/A   Overcast
8:55 AM 23.0 °F 9.6 °F 21.2 °F 93% 29.89 in 5.0 mi SE 16.1 mph 21.9 mph N/A   Overcast
9:15 AM 23.0 °F 10.6 °F 21.2 °F 93% 29.90 in 6.0 mi SE 13.8 mph 19.6 mph N/A   Mostly Cloudy
9:35 AM 23.0 °F 8.7 °F 21.2 °F 93% 29.90 in 6.0 mi SE 18.4 mph 23.0 mph N/A   Mostly Cloudy
9:55 AM 23.0 °F 9.2 °F 21.2 °F 93% 29.89 in 7.0 mi SE 17.3 mph - N/A   Mostly Cloudy
10:15 AM 23.0 °F 8.7 °F 21.2 °F 93% 29.90 in 7.0 mi SE 18.4 mph - N/A   Mostly Cloudy
10:35 AM 23.0 °F 9.6 °F 21.2 °F 93% 29.90 in 8.0 mi SE 16.1 mph 24.2 mph N/A   Mostly Cloudy
10:55 AM 23.0 °F 10.1 °F 23.0 °F 100% 29.89 in 8.0 mi SE 15.0 mph - N/A   Scattered Clouds
11:15 AM 24.8 °F 12.4 °F 23.0 °F 93% 29.89 in 9.0 mi SSE 15.0 mph 19.6 mph N/A   Partly Cloudy
11:35 AM 24.8 °F 14.0 °F 23.0 °F 93% 29.88 in 10.0 mi SE 11.5 mph - N/A   Partly Cloudy
11:55 AM 24.8 °F 14.0 °F 23.0 °F 93% 29.88 in 10.0 mi SE 11.5 mph - N/A   Partly Cloudy
12:15 PM 24.8 °F 13.4 °F 23.0 °F 93% 29.88 in 10.0 mi SE 12.7 mph - N/A   Clear
12:35 PM 26.6 °F 16.2 °F 23.0 °F 86% 29.88 in 10.0 mi SE 11.5 mph - N/A   Partly Cloudy
12:55 PM 26.6 °F 15.2 °F 23.0 °F 86% 29.88 in 10.0 mi SE 13.8 mph - N/A   Clear
1:15 PM 26.6 °F 15.7 °F 23.0 °F 86% 29.87 in 10.0 mi SE 12.7 mph - N/A   Clear
1:35 PM 26.6 °F 16.8 °F 23.0 °F 86% 29.88 in 10.0 mi ESE 10.4 mph - N/A   Clear
1:55 PM 28.4 °F 19.7 °F 23.0 °F 80% 29.89 in 10.0 mi ESE 9.2 mph - N/A   Mostly Cloudy
2:15 PM 24.8 °F 15.3 °F 23.0 °F 93% 29.89 in 7.0 mi SE 9.2 mph - N/A   Overcast
2:35 PM 24.8 °F 16.1 °F 23.0 °F 93% 29.90 in 8.0 mi ESE 8.1 mph - N/A   Overcast
2:55 PM 24.8 °F 14.6 °F 21.2 °F 86% 29.90 in 7.0 mi SE 10.4 mph - N/A   Overcast
3:15 PM 24.8 °F 17.9 °F 21.2 °F 86% 29.91 in 7.0 mi ESE 5.8 mph - N/A   Overcast
3:35 PM 24.8 °F 14.6 °F 21.2 °F 86% 29.91 in 8.0 mi SE 10.4 mph - N/A   Overcast
3:55 PM 24.8 °F 15.3 °F 21.2 °F 86% 29.91 in 8.0 mi SE 9.2 mph - N/A   Overcast
4:15 PM 24.8 °F 16.1 °F 21.2 °F 86% 29.91 in 8.0 mi SE 8.1 mph - N/A   Overcast
4:35 PM 24.8 °F 14.6 °F 21.2 °F 86% 29.92 in 9.0 mi SE 10.4 mph - N/A   Overcast
4:55 PM 23.0 °F 15.8 °F 21.2 °F 93% 29.93 in 9.0 mi SE 5.8 mph - N/A   Overcast
5:15 PM 23.0 °F 15.8 °F 19.4 °F 86% 29.93 in 9.0 mi SE 5.8 mph - N/A   Overcast
5:35 PM 23.0 °F 15.8 °F 19.4 °F 86% 29.95 in 8.0 mi SE 5.8 mph - N/A   Partly Cloudy
5:55 PM 21.2 °F 14.9 °F 19.4 °F 93% 29.95 in 8.0 mi SSE 4.6 mph - N/A   Clear
6:15 PM 19.4 °F 8.6 °F 17.6 °F 93% 29.94 in 7.0 mi SSE 9.2 mph - N/A   Clear
6:35 PM 19.4 °F 10.4 °F 17.6 °F 93% 29.93 in 7.0 mi SSE 6.9 mph - N/A   Clear
6:55 PM 19.4 °F 10.4 °F 17.6 °F 93% 29.93 in 7.0 mi SSE 6.9 mph - N/A   Clear
7:15 PM 19.4 °F 10.4 °F 19.4 °F 100% 29.93 in 7.0 mi SSE 6.9 mph - N/A   Clear
7:35 PM 19.4 °F 7.9 °F 17.6 °F 93% 29.93 in 7.0 mi SE 10.4 mph - N/A   Clear
7:55 PM 19.4 °F 10.4 °F 19.4 °F 100% 29.92 in 7.0 mi SSE 6.9 mph - N/A   Clear
8:15 PM 19.4 °F 12.8 °F 19.4 °F 100% 29.92 in 8.0 mi South 4.6 mph - N/A   Clear
8:35 PM 19.4 °F 9.5 °F 17.6 °F 93% 29.91 in 8.0 mi SSE 8.1 mph - N/A   Clear
8:55 PM 19.4 °F 10.4 °F 17.6 °F 93% 29.92 in 8.0 mi SSE 6.9 mph - N/A   Clear
9:15 PM 19.4 °F 12.8 °F 17.6 °F 93% 29.92 in 8.0 mi SSE 4.6 mph - N/A   Clear
9:35 PM 17.6 °F 9.3 °F 15.8 °F 93% 29.92 in 9.0 mi SSE 5.8 mph - N/A   Clear
9:55 PM 17.6 °F 9.3 °F 17.6 °F 100% 29.92 in 9.0 mi SSE 5.8 mph - N/A   Clear
10:15 PM 19.4 °F 9.5 °F 17.6 °F 93% 29.91 in 10.0 mi SSE 8.1 mph - N/A   Clear
10:35 PM 19.4 °F 10.4 °F 17.6 °F 93% 29.91 in 10.0 mi SSE 6.9 mph - N/A   Clear
10:55 PM 19.4 °F 12.8 °F 19.4 °F 100% 29.92 in 10.0 mi SE 4.6 mph - N/A   Clear
11:15 PM 19.4 °F 10.4 °F 19.4 °F 100% 29.92 in 10.0 mi SE 6.9 mph - N/A   Clear
11:35 PM 21.2 °F 13.6 °F 19.4 °F 93% 29.91 in 10.0 mi SSE 5.8 mph - N/A   Clear
11:55 PM 21.2 °F 11.7 °F 19.4 °F 93% 29.90 in 10.0 mi SSE 8.1 mph - N/A   Clear